Plymouth Light

42° 00' 12"N, 70° 36' 04"W, Elevation 54 ft.
Eastern Time

Hourly observations for the last 72 hours

Date Time Temperature (°F) Humi-
dity

(%)
Wind
(mph)
Pressure Rain (in) Sun
(W/m2)
ET
(in)
Air Dew 6 Hour 1 Hr 3 Hr 6 Hr Day
Alt
(in)
Sea
Level

(mb)
Max Min
30 07:00 26.6 19.1 28.7 26.3 73 NW 11 G 19 29.92 1013.2 0.00 11 0.025
30 06:00 26.7 18.9 72 NW 13 G 19 29.90 1012.7 0.00 0 0.024
30 05:00 26.5 17.7 69 NNW 10 G 19 29.88 1012.0 0.00 0 0.023
30 04:00 27.3 19.1 71 NW 15 G 22 29.88 1011.7 0.00 0 0.021
30 03:00 27.6 19.1 70 NNW 10 G 16 29.86 1011.1 0.00 0 0.019
30 02:00 28.4 19.9 70 NW 12 G 18 29.85 1011.0 0.00 0 0.017
30 01:00 28.5 18.6 34.5 28.5 66 NW 13 G 19 29.83 1010.3 0.00 0 0.015
30 00:00 29.1 18.4 64 NNW 13 G 20 29.83 1010.2 0.00 0 0.013
29 23:00 29.8 19.5 65 NNW 10 G 21 29.84 1010.4 0.00 0 0.011
29 22:00 31.0 22.4 70 NNW 12 G 21 29.84 1010.7 0.00 0 0.009
29 21:00 32.6 23.9 70 NW 13 G 19 29.84 1010.5 0.00 0 0.007
29 20:00 33.0 23.6 68 NNW 9 G 16 29.83 1010.0 0.00 0 0.005
29 19:00 34.5 24.7 38.2 34.4 67 NNW 12 G 19 29.82 1009.7 0.00 0 0.003
29 18:00 36.7 26.0 65 NNW 10 G 15 29.78 1008.6 0.00 0 0.001
29 17:00 37.1 27.5 68 NNW 8 G 14 29.77 1008.0 0.00 0 0.000
29 16:00 37.6 27.6 67 N 7 G 13 29.76 1008.0 0.00 19 0.032
29 15:00 37.8 28.2 68 N 9 G 15 29.75 1007.6 0.00 76 0.030
29 14:00 37.8 29.2 71 N 8 G 16 29.75 1007.4 0.00 135 0.026
29 13:00 38.0 30.1 39.1 34.3 73 N 12 G 17 29.74 1007.1 0.00 272 0.022
29 12:00 38.0 31.1 76 N 12 G 19 29.75 1007.6 0.00 183 0.018
29 11:00 38.8 31.9 76 N 13 G 19 29.77 1008.0 0.00 213 0.013
29 10:00 38.8 32.9 79 N 12 G 18 29.77 1008.3 0.00 176 0.007
29 09:00 38.1 33.7 84 N 11 G 16 29.78 1008.6 0.00 141 0.004
29 08:00 36.3 32.5 86 NNW 8 G 13 29.77 1008.3 0.00 54 0.003
29 07:00 34.3 30.8 37.3 34.2 87 NNW 7 G 12 29.78 1008.4 0.00 5 0.002
29 06:00 34.3 30.8 87 NNW 7 G 11 29.76 1008.0 0.00 0 0.002
29 05:00 35.2 31.1 85 NNW 4 G 9 29.76 1007.7 0.00 0 0.002
29 04:00 35.4 30.8 83 NNW 4 G 8 29.75 1007.4 0.00 0 0.002
29 03:00 36.3 31.0 81 NNW 6 G 10 29.76 1007.8 0.00 0 0.001
29 02:00 36.6 31.3 81 NNW 5 G 9 29.76 1007.9 0.00 0 0.001
29 01:00 36.1 30.8 38.2 35.6 81 NNW 3 G 5 29.76 1007.7 0.00 0 0.001
29 00:00 36.9 31.3 80 NW 1 G 2 29.77 1008.1 0.00 0 0.001
28 23:00 36.6 30.7 79 NW 2 G 4 29.79 1008.9 0.00 0 0.001
28 22:00 37.0 31.1 79 NW 4 G 6 29.80 1009.2 0.00 0 0.001
28 21:00 37.2 31.0 78 NW 2 G 6 29.80 1009.3 0.00 0 0.001
28 20:00 38.2 32.0 78 WSW 3 G 4 29.81 1009.4 0.00 0 0.001
28 19:00 37.5 30.6 37.5 36.2 76 S 1 G 5 29.81 1009.4 0.00 0 0.000
28 18:00 36.9 29.4 74 W 3 G 6 29.80 1009.3 0.00 0 0.000
28 17:00 36.4 28.2 72 W 1 G 2 29.80 1009.3 0.00 0 0.000
28 16:00 36.2 27.4 70 W 1 G 6 29.80 1009.2 0.00 5 0.062
28 15:00 36.5 27.3 69 W 6 G 11 29.82 1009.9 0.00 26 0.061
28 14:00 37.0 27.1 67 WSW 7 G 12 29.82 1009.9 0.00 39 0.059
28 13:00 37.1 26.8 38.1 30.9 66 W 8 G 14 29.82 1009.8 0.00 107 0.055
28 12:00 38.1 25.8 61 W 8 G 12 29.82 1010.0 0.00 248 0.049
28 11:00 36.4 25.0 63 WNW 9 G 16 29.84 1010.7 0.00 429 0.042
28 10:00 35.3 25.4 67 W 10 G 16 29.86 1011.3 0.00 336 0.036
28 09:00 33.3 24.2 69 W 12 G 19 29.85 1010.9 0.00 118 0.032
28 08:00 31.9 23.9 72 W 12 G 18 29.85 1010.9 0.00 46 0.030
28 07:00 31.1 23.5 31.2 29.5 73 W 14 G 20 29.85 1010.8 0.00 7 0.028
28 06:00 30.6 23.3 74 WNW 14 G 21 29.83 1010.3 0.00 0 0.026
28 05:00 30.1 22.5 73 WNW 13 G 20 29.83 1010.1 0.00 0 0.024
28 04:00 29.7 21.5 71 WNW 13 G 19 29.83 1010.1 0.00 0 0.022
28 03:00 30.0 21.4 70 WNW 14 G 20 29.81 1009.6 0.00 0 0.020
28 02:00 29.7 20.4 68 WNW 15 G 19 29.82 1009.7 0.00 0 0.018
28 01:00 29.9 20.6 33.5 29.8 68 WNW 13 G 21 29.80 1009.3 0.00 0 0.016
28 00:00 30.3 20.7 67 WNW 14 G 23 29.80 1009.2 0.00 0 0.014
27 23:00 31.1 21.1 66 WNW 15 G 22 29.80 1009.1 0.00 0 0.012
27 22:00 31.5 21.8 67 WNW 16 G 22 29.78 1008.5 0.00 0 0.010
27 21:00 32.3 22.2 66 WNW 17 G 22 29.78 1008.6 0.00 0 0.008
27 20:00 32.8 22.7 66 WNW 19 G 25 29.77 1008.1 0.00 0 0.006
27 19:00 33.5 24.1 39.1 33.5 68 WNW 14 G 21 29.77 1008.0 0.00 0 0.004
27 18:00 35.1 23.8 63 NW 15 G 21 29.73 1006.9 0.00 0 0.002
27 17:00 36.1 25.1 64 NW 13 G 19 29.70 1005.8 0.00 0 0.000
27 16:00 37.2 25.4 62 WNW 13 G 19 29.68 1005.2 0.04 12 0.080
27 15:00 38.0 25.7 61 NW 18 G 24 29.66 1004.3 0.04 125 0.075
27 14:00 38.7 26.8 62 NNW 15 G 26 29.63 1003.3 0.04 288 0.067
27 13:00 38.6 25.9 38.8 34.7 60 WNW 17 G 25 29.61 1002.7 0.04 388 0.058
27 12:00 38.0 26.9 64 NW 15 G 24 29.61 1002.7 0.04 443 0.049
27 11:00 37.0 27.1 67 NW 16 G 24 29.60 1002.6 0.04 441 0.040
27 10:00 36.0 26.8 69 NNW 19 G 30 29.60 1002.3 0.04 390 0.032
27 09:00 35.4 27.6 73 NW 16 G 30 29.59 1001.9 0.04 301 0.026
27 08:00 34.8 28.0 76 WNW 15 G 22 29.58 1001.6 0.04 155 0.023

Data generated by WxSolution Version 1.9.1.1, Build 2017.11.27.